Disclaimer

Please do not use the information listed here in-flight or in-navigation, as they are not provided to us by the airports but are provided by volunteers, so they might be outdated.

Search


Regions


Airport information page

Radio informations:
MUNCHEN RADAR - 128.25 MHz
MUNCHEN INFO - 120.65 MHz

Airport informations:
Latitude: 48° 25' 30.57" N
Longitude: 010° 55' 54.35" E
Elevation: 1515 feet - 462 meters
Operating hours: Remarks
Operating agency: Civil government, landing fees and diplomatic clearance may be required
Timezone: UTC+1(+2DT) - Last Sunday in March to last Sunday in October
Fuel: Jet A1+, Jet A1 with icing inhibitor.

100/130 MIL Spec, low lead, aviation gasoline (BLUE)

Runway information:
07/25 - 4199 x 98 feet< - >1280 x 30 meters
07L/25R - 3325 x 100 feet< - >1013 x 30 meters

Recent METARs:
EDMA 192020Z AUTO 07009KT 040V100 9999 // OVC016/// 01/M03 Q1007
EDMA 192050Z AUTO 09009KT 060V130 9999 // OVC016/// 01/M03 Q1008
EDMA 192120Z AUTO 08011KT 9999 // OVC016/// 00/M03 Q1007

Airport on the map: